createdAt,value
2024-03-14T00:01:09.908Z,99846.25
2024-03-14T00:03:38.310Z,99847.84
2024-03-14T00:06:05.110Z,99844.78
2024-03-14T00:08:31.685Z,99845.06
2024-03-14T00:10:58.192Z,99851.09
2024-03-14T00:13:25.859Z,99840.75
2024-03-14T00:15:52.406Z,99843.44
2024-03-14T00:18:19.923Z,99828.66
2024-03-14T00:20:46.526Z,99834.37
2024-03-14T00:23:13.257Z,99833.56
2024-03-14T00:25:41.816Z,99845.28
2024-03-14T00:28:11.180Z,99842.75
2024-03-14T00:30:37.773Z,99848.28
2024-03-14T00:33:05.578Z,99850.19
2024-03-14T00:35:32.275Z,99848.75
2024-03-14T00:37:59.517Z,99847.97
2024-03-14T00:40:26.708Z,99841.87
2024-03-14T00:42:53.658Z,99843.25
2024-03-14T00:45:20.488Z,99831.94
2024-03-14T00:47:47.430Z,99833.13
2024-03-14T00:50:14.357Z,99836.59
2024-03-14T00:52:41.278Z,99833.75
2024-03-14T00:55:10.205Z,99825.72
2024-03-14T00:57:38.093Z,99829.44
2024-03-14T01:00:14.839Z,99826.44
2024-03-14T01:02:42.646Z,99832.97
2024-03-14T01:05:10.094Z,99827.06
2024-03-14T01:07:36.658Z,99829.00
2024-03-14T01:10:06.017Z,99821.59
2024-03-14T01:12:32.887Z,99819.63
2024-03-14T01:14:59.656Z,99821.78
2024-03-14T01:17:26.134Z,99819.63
2024-03-14T01:20:12.849Z,99821.59
2024-03-14T01:22:39.342Z,99817.72
2024-03-14T01:25:07.028Z,99821.53
2024-03-14T01:27:33.755Z,99818.28
2024-03-14T01:30:00.616Z,99819.13
2024-03-14T01:32:27.248Z,99824.81
2024-03-14T01:34:54.012Z,99822.88
2024-03-14T01:37:23.139Z,99818.97
2024-03-14T01:39:51.478Z,99812.94
2024-03-14T01:42:18.265Z,99816.31
2024-03-14T01:44:54.133Z,99813.47
2024-03-14T01:47:22.859Z,99802.72
2024-03-14T01:49:51.638Z,99813.38
2024-03-14T01:52:21.232Z,99810.94
2024-03-14T01:54:50.925Z,99810.63
2024-03-14T01:57:18.617Z,99807.31
2024-03-14T01:59:50.996Z,99803.50
2024-03-14T02:02:18.915Z,99810.13
2024-03-14T02:04:48.779Z,99803.91
2024-03-14T02:07:18.977Z,99797.66
2024-03-14T02:09:48.511Z,99805.50
2024-03-14T02:12:15.210Z,99798.75
2024-03-14T02:14:42.180Z,99806.38
2024-03-14T02:17:08.940Z,99807.75
2024-03-14T02:19:35.422Z,99806.66
2024-03-14T02:22:02.474Z,99798.84
2024-03-14T02:24:29.236Z,99799.81
2024-03-14T02:27:00.610Z,99806.38
2024-03-14T02:29:27.610Z,99800.00
2024-03-14T02:31:54.056Z,99802.78
2024-03-14T02:34:20.757Z,99801.53
2024-03-14T02:36:47.532Z,99803.87
2024-03-14T02:39:17.273Z,99803.91
2024-03-14T02:41:43.802Z,99800.75
2024-03-14T02:44:17.878Z,99800.00
2024-03-14T02:46:54.549Z,99800.50
2024-03-14T02:49:21.972Z,99812.50
2024-03-14T02:51:48.639Z,99812.25
2024-03-14T02:54:16.710Z,99812.00
2024-03-14T02:56:51.596Z,99812.53
2024-03-14T02:59:18.668Z,99817.50
2024-03-14T03:01:45.292Z,99816.59
2024-03-14T03:04:12.424Z,99815.53
2024-03-14T03:06:59.265Z,99818.84
2024-03-14T03:09:28.812Z,99818.03
2024-03-14T03:11:55.501Z,99820.22
2024-03-14T03:14:22.804Z,99816.41
2024-03-14T03:16:49.337Z,99822.59
2024-03-14T03:19:16.125Z,99822.91
2024-03-14T03:21:42.652Z,99818.53
2024-03-14T03:24:09.506Z,99813.34
2024-03-14T03:26:36.589Z,99818.50
2024-03-14T03:29:03.221Z,99824.22
2024-03-14T03:31:30.379Z,99820.66
2024-03-14T03:33:57.843Z,99827.63
2024-03-14T03:36:24.676Z,99835.72
2024-03-14T03:38:51.384Z,99826.22
2024-03-14T03:41:17.964Z,99834.31
2024-03-14T03:43:47.346Z,99827.16
2024-03-14T03:46:13.829Z,99820.84
2024-03-14T03:48:40.459Z,99831.63
2024-03-14T03:51:07.099Z,99824.59
2024-03-14T03:53:33.741Z,99827.84
2024-03-14T03:56:06.597Z,99827.31
2024-03-14T03:58:34.240Z,99822.69
2024-03-14T04:01:08.376Z,99817.91
2024-03-14T04:03:37.687Z,99821.25
2024-03-14T04:06:04.425Z,99825.91
2024-03-14T04:08:31.924Z,99822.09
2024-03-14T04:10:58.465Z,99824.84
2024-03-14T04:13:25.052Z,99826.72
2024-03-14T04:15:51.641Z,99823.66
2024-03-14T04:18:18.237Z,99830.06
2024-03-14T04:20:44.953Z,99827.50
2024-03-14T04:23:11.666Z,99829.75
2024-03-14T04:25:38.599Z,99830.34
2024-03-14T04:28:08.595Z,99842.06
2024-03-14T04:30:35.203Z,99838.53
2024-03-14T04:33:01.898Z,99839.56
2024-03-14T04:35:28.502Z,99845.16
2024-03-14T04:37:55.115Z,99839.94
2024-03-14T04:40:22.608Z,99848.41
2024-03-14T04:42:55.727Z,99846.97
2024-03-14T04:45:23.241Z,99845.03
2024-03-14T04:47:50.220Z,99850.81
2024-03-14T04:50:20.199Z,99848.72
2024-03-14T04:52:47.087Z,99849.97
2024-03-14T04:55:14.040Z,99848.59
2024-03-14T04:57:44.981Z,99843.13
2024-03-14T05:00:21.296Z,99841.34
2024-03-14T05:02:52.594Z,99845.91
2024-03-14T05:05:22.085Z,99841.28
2024-03-14T05:07:49.615Z,99840.91
2024-03-14T05:10:20.081Z,99844.03
2024-03-14T05:12:47.424Z,99851.31
2024-03-14T05:15:15.496Z,99848.94
2024-03-14T05:17:43.407Z,99852.66
2024-03-14T05:20:11.931Z,99854.84
2024-03-14T05:22:39.589Z,99858.50
2024-03-14T05:25:07.950Z,99857.00
2024-03-14T05:30:05.140Z,99870.84
2024-03-14T05:32:33.382Z,99871.56
2024-03-14T05:35:01.669Z,99876.41
2024-03-14T05:37:28.892Z,99870.31
2024-03-14T05:39:56.242Z,99876.31
2024-03-14T05:42:23.348Z,99882.88
2024-03-14T05:44:50.607Z,99886.13
2024-03-14T05:47:17.253Z,99883.81
2024-03-14T05:49:43.873Z,99882.16
2024-03-14T05:52:11.508Z,99883.16
2024-03-14T05:54:38.562Z,99880.44
2024-03-14T05:57:05.269Z,99886.19
2024-03-14T05:59:32.109Z,99883.00
2024-03-14T06:01:59.077Z,99882.97
2024-03-14T06:04:25.622Z,99893.50
2024-03-14T06:06:52.089Z,99899.03
2024-03-14T06:09:19.019Z,99892.25
2024-03-14T06:11:45.720Z,99889.53
2024-03-14T06:14:12.272Z,99897.75
2024-03-14T06:16:38.786Z,99903.28
2024-03-14T06:19:07.610Z,99902.50
2024-03-14T06:21:41.404Z,99904.97
2024-03-14T06:24:07.960Z,99908.53
2024-03-14T06:26:38.192Z,99912.34
2024-03-14T06:29:04.665Z,99919.16
2024-03-14T06:31:31.117Z,99918.84
2024-03-14T06:33:57.690Z,99913.97
2024-03-14T06:36:25.257Z,99919.09
2024-03-14T06:38:52.503Z,99920.16
2024-03-14T06:41:20.345Z,99925.31
2024-03-14T06:43:47.010Z,99915.16
2024-03-14T06:46:16.713Z,99918.78
2024-03-14T06:48:43.512Z,99929.59
2024-03-14T06:51:11.698Z,99925.91
2024-03-14T06:53:39.675Z,99924.16
2024-03-14T06:56:10.033Z,99925.56
2024-03-14T06:58:36.780Z,99937.34
2024-03-14T07:01:03.355Z,99935.13
2024-03-14T07:03:29.926Z,99934.72
2024-03-14T07:05:59.165Z,99931.78
2024-03-14T07:08:27.804Z,99941.03
2024-03-14T07:10:54.646Z,99940.13
2024-03-14T07:13:21.240Z,99941.53
2024-03-14T07:15:49.124Z,99937.97
2024-03-14T07:18:17.752Z,99943.59
2024-03-14T07:20:47.064Z,99941.75
2024-03-14T07:23:14.713Z,99944.16
2024-03-14T07:25:42.453Z,99952.34
2024-03-14T07:28:10.634Z,99948.66
2024-03-14T07:30:37.243Z,99944.56
2024-03-14T07:33:03.964Z,99959.03
2024-03-14T07:35:30.476Z,99967.06
2024-03-14T07:37:57.312Z,99955.84
2024-03-14T07:40:33.959Z,99961.03
2024-03-14T07:43:00.886Z,99970.44
2024-03-14T07:45:27.835Z,99967.75
2024-03-14T07:48:19.185Z,99974.06
2024-03-14T07:50:52.264Z,99972.25
2024-03-14T07:53:20.446Z,99979.97
2024-03-14T07:55:47.204Z,99976.31
2024-03-14T07:58:13.680Z,99978.63
2024-03-14T08:00:40.202Z,99983.69
2024-03-14T08:03:06.700Z,99977.13
2024-03-14T08:05:35.416Z,99982.25
2024-03-14T08:08:13.904Z,99980.09
2024-03-14T08:10:48.009Z,99985.41
2024-03-14T08:13:21.520Z,99977.06
2024-03-14T08:15:54.391Z,99978.50
2024-03-14T08:18:22.855Z,99986.56
2024-03-14T08:20:49.594Z,99992.00
2024-03-14T08:23:16.836Z,99985.53
2024-03-14T08:25:43.762Z,99983.56
2024-03-14T08:28:10.268Z,99995.00
2024-03-14T08:30:38.820Z,99996.03
2024-03-14T08:33:05.999Z,100004.19
2024-03-14T08:35:34.536Z,99996.72
2024-03-14T08:38:01.254Z,99996.38
2024-03-14T08:40:28.118Z,99999.88
2024-03-14T08:42:54.630Z,99992.53
2024-03-14T08:45:21.538Z,100000.63
2024-03-14T08:47:48.727Z,99994.09
2024-03-14T08:50:16.773Z,99992.87
2024-03-14T08:52:43.848Z,99990.94
2024-03-14T08:55:26.657Z,99997.97
2024-03-14T08:57:53.581Z,100001.97
2024-03-14T09:00:23.322Z,99993.87
2024-03-14T09:02:50.918Z,99992.38
2024-03-14T09:05:17.935Z,99994.22
2024-03-14T09:07:47.077Z,99991.94
2024-03-14T09:10:29.526Z,99993.91
2024-03-14T09:12:56.760Z,99997.72
2024-03-14T09:15:25.566Z,100001.50
2024-03-14T09:17:52.950Z,100003.81
2024-03-14T09:20:22.624Z,100001.09
2024-03-14T09:22:56.778Z,99997.44
2024-03-14T09:25:25.155Z,100003.63
2024-03-14T09:27:54.617Z,100001.94
2024-03-14T09:30:23.455Z,99999.44
2024-03-14T09:32:51.778Z,100004.97
2024-03-14T09:35:26.814Z,100007.25
2024-03-14T09:37:57.309Z,99998.41
2024-03-14T09:40:40.011Z,99996.09
2024-03-14T09:43:15.112Z,99990.12
2024-03-14T09:45:43.670Z,99991.88
2024-03-14T09:48:13.219Z,99987.16
2024-03-14T09:50:40.010Z,99995.19
2024-03-14T09:53:08.455Z,99983.88
2024-03-14T09:55:37.041Z,99986.37
2024-03-14T09:58:06.144Z,99983.03
2024-03-14T10:00:32.990Z,99986.06
2024-03-14T10:03:02.221Z,99984.19
2024-03-14T10:05:29.734Z,99977.00
2024-03-14T10:07:56.397Z,99979.41
2024-03-14T10:10:24.442Z,99978.31
2024-03-14T10:12:58.564Z,99989.03
2024-03-14T10:15:26.835Z,99984.31
2024-03-14T10:17:53.916Z,99980.78
2024-03-14T10:20:21.729Z,99967.66
2024-03-14T10:22:50.279Z,99971.97
2024-03-14T10:25:18.634Z,99967.66
2024-03-14T10:28:00.411Z,99971.31
2024-03-14T10:30:35.215Z,99961.31
2024-03-14T10:33:04.851Z,99962.41
2024-03-14T10:35:33.898Z,99963.09
2024-03-14T10:38:01.930Z,99961.91
2024-03-14T10:40:31.819Z,99954.25
2024-03-14T10:42:58.564Z,99949.91
2024-03-14T10:45:28.530Z,99944.72
2024-03-14T10:47:56.737Z,99948.94
2024-03-14T10:50:23.852Z,99944.00
2024-03-14T10:52:56.364Z,99944.28
2024-03-14T10:55:46.703Z,99948.56
2024-03-14T10:58:17.261Z,99938.75
2024-03-14T11:00:45.475Z,99943.19
2024-03-14T11:03:18.955Z,99933.81
2024-03-14T11:05:52.990Z,99929.88
2024-03-14T11:08:24.448Z,99923.13
2024-03-14T11:10:56.481Z,99927.22
2024-03-14T11:13:31.825Z,99921.78
2024-03-14T11:16:00.402Z,99912.97
2024-03-14T11:18:38.621Z,99920.06
2024-03-14T11:21:07.541Z,99914.50
2024-03-14T11:23:37.845Z,99903.97
2024-03-14T11:26:13.796Z,99885.00
2024-03-14T11:28:42.827Z,99870.09
2024-03-14T11:31:09.383Z,99895.44
2024-03-14T11:33:36.345Z,99890.12
2024-03-14T11:36:05.656Z,99883.50
2024-03-14T11:38:34.080Z,99885.19
2024-03-14T11:41:04.680Z,99895.09
2024-03-14T11:43:35.022Z,99896.72
2024-03-14T11:46:24.641Z,99897.75
2024-03-14T11:48:51.157Z,99901.31
2024-03-14T11:51:20.179Z,99898.78
2024-03-14T11:53:47.663Z,99884.31
2024-03-14T11:56:15.265Z,99890.81
2024-03-14T11:58:45.421Z,99889.19
2024-03-14T12:01:21.603Z,99892.59
2024-03-14T12:03:53.002Z,99886.59
2024-03-14T12:06:19.869Z,99888.81
2024-03-14T12:08:48.886Z,99880.66
2024-03-14T12:11:15.839Z,99878.00
2024-03-14T12:13:53.442Z,99872.03
2024-03-14T12:16:20.659Z,99878.09
2024-03-14T12:18:53.645Z,99879.87
2024-03-14T12:21:20.754Z,99867.84
2024-03-14T12:23:52.020Z,99862.47
2024-03-14T12:26:19.466Z,99858.41
2024-03-14T12:28:49.352Z,99853.81
2024-03-14T12:31:18.770Z,99857.81
2024-03-14T12:33:48.369Z,99859.50
2024-03-14T12:36:18.873Z,99865.16
2024-03-14T12:38:52.767Z,99852.56
2024-03-14T12:41:19.986Z,99857.13
2024-03-14T12:43:48.584Z,99860.88
2024-03-14T12:46:18.834Z,99864.06
2024-03-14T12:48:46.981Z,99859.34
2024-03-14T12:51:18.305Z,99852.91
2024-03-14T12:53:57.470Z,99858.13
2024-03-14T12:56:25.729Z,99859.78
2024-03-14T12:58:53.807Z,99843.41
2024-03-14T13:01:20.525Z,99847.59
2024-03-14T13:03:47.526Z,99835.81
2024-03-14T13:06:24.927Z,99842.78
2024-03-14T13:09:26.397Z,99836.50
2024-03-14T13:12:23.466Z,99839.25
2024-03-14T13:15:12.232Z,99837.50
2024-03-14T13:17:39.782Z,99836.47
2024-03-14T13:20:19.501Z,99836.75
2024-03-14T13:22:49.286Z,99834.69
2024-03-14T13:25:15.808Z,99833.41
2024-03-14T13:27:42.381Z,99836.56
2024-03-14T13:30:09.768Z,99832.72
2024-03-14T13:32:38.510Z,99832.25
2024-03-14T13:35:11.170Z,99829.47
2024-03-14T13:37:37.830Z,99830.94
2024-03-14T13:42:42.982Z,99836.28
2024-03-14T13:45:09.674Z,99836.16
2024-03-14T13:47:39.134Z,99838.75
2024-03-14T13:50:10.833Z,99833.16
2024-03-14T13:52:42.479Z,99835.59
2024-03-14T13:55:26.288Z,99829.59
2024-03-14T13:57:56.199Z,99827.13
2024-03-14T14:00:30.781Z,99832.34
2024-03-14T14:03:00.249Z,99830.22
2024-03-14T14:05:26.798Z,99833.41
2024-03-14T14:07:56.676Z,99831.59
2024-03-14T14:10:24.146Z,99841.47
2024-03-14T14:12:52.016Z,99833.37
2024-03-14T14:15:19.429Z,99839.63
2024-03-14T14:17:46.328Z,99840.66
2024-03-14T14:20:18.402Z,99837.28
2024-03-14T14:22:46.415Z,99840.66
2024-03-14T14:25:15.965Z,99838.72
2024-03-14T14:27:46.166Z,99840.22
2024-03-14T14:30:22.703Z,99837.56
2024-03-14T14:32:50.604Z,99833.37
2024-03-14T14:35:17.545Z,99822.19
2024-03-14T14:37:50.517Z,99833.94
2024-03-14T14:40:17.551Z,99835.22
2024-03-14T14:42:44.422Z,99831.66
2024-03-14T14:45:11.766Z,99828.31
2024-03-14T14:47:43.087Z,99829.62
2024-03-14T14:50:11.232Z,99827.03
2024-03-14T14:52:39.010Z,99832.56
2024-03-14T14:55:12.975Z,99826.13
2024-03-14T14:57:45.112Z,99824.91
2024-03-14T15:00:15.389Z,99822.81
2024-03-14T15:02:48.640Z,99827.03
2024-03-14T15:05:15.524Z,99822.25
2024-03-14T15:07:42.664Z,99826.72
2024-03-14T15:10:11.780Z,99830.12
2024-03-14T15:12:46.767Z,99827.13
2024-03-14T15:15:23.900Z,99824.19
2024-03-14T15:17:51.355Z,99820.06
2024-03-14T15:20:22.189Z,99821.84
2024-03-14T15:22:50.153Z,99815.53
2024-03-14T15:25:18.092Z,99814.78
2024-03-14T15:27:46.179Z,99822.03
2024-03-14T15:30:13.713Z,99821.94
2024-03-14T15:32:43.533Z,99817.03
2024-03-14T15:35:12.518Z,99812.69
2024-03-14T15:37:40.121Z,99818.91
2024-03-14T15:40:16.795Z,99822.28
2024-03-14T15:42:44.804Z,99820.38
2024-03-14T15:45:18.312Z,99813.72
2024-03-14T15:47:49.697Z,99817.53
2024-03-14T15:50:17.821Z,99823.28
2024-03-14T15:52:45.755Z,99824.47
2024-03-14T15:55:14.198Z,99825.00
2024-03-14T15:57:40.896Z,99825.94
2024-03-14T16:00:09.672Z,99818.97
2024-03-14T16:02:40.042Z,99822.97
2024-03-14T16:05:11.465Z,99828.25
2024-03-14T16:07:38.133Z,99829.31
2024-03-14T16:10:16.856Z,99839.19
2024-03-14T16:12:44.316Z,99832.41
2024-03-14T16:15:13.700Z,99839.94
2024-03-14T16:17:41.034Z,99834.28
2024-03-14T16:20:35.074Z,99833.87
2024-03-14T16:23:04.630Z,99840.69
2024-03-14T16:25:36.163Z,99840.56
2024-03-14T16:28:04.568Z,99841.69
2024-03-14T16:30:32.148Z,99835.13
2024-03-14T16:32:58.955Z,99835.88
2024-03-14T16:35:33.870Z,99836.41
2024-03-14T16:38:02.964Z,99830.56
2024-03-14T16:40:31.084Z,99841.56
2024-03-14T16:42:59.762Z,99840.22
2024-03-14T16:45:36.052Z,99840.84
2024-03-14T16:48:03.842Z,99844.09
2024-03-14T16:50:31.872Z,99843.28
2024-03-14T16:52:59.174Z,99847.06
2024-03-14T16:55:27.478Z,99847.63
2024-03-14T16:57:55.270Z,99848.56
2024-03-14T17:00:31.835Z,99845.84
2024-03-14T17:02:59.658Z,99846.72
2024-03-14T17:05:26.452Z,99852.94
2024-03-14T17:07:57.164Z,99853.22
2024-03-14T17:10:24.788Z,99849.09
2024-03-14T17:12:52.490Z,99856.41
2024-03-14T17:15:19.715Z,99849.19
2024-03-14T17:17:46.788Z,99853.88
2024-03-14T17:20:13.995Z,99851.69
2024-03-14T17:22:41.125Z,99849.00
2024-03-14T17:25:08.504Z,99845.69
2024-03-14T17:27:36.035Z,99854.72
2024-03-14T17:30:07.311Z,99854.03
2024-03-14T17:32:34.732Z,99853.91
2024-03-14T17:35:02.306Z,99848.16
2024-03-14T17:37:28.815Z,99856.72
2024-03-14T17:39:55.641Z,99849.84
2024-03-14T17:42:22.149Z,99860.44
2024-03-14T17:44:48.659Z,99853.12
2024-03-14T17:47:15.122Z,99848.37
2024-03-14T17:49:41.714Z,99851.34
2024-03-14T17:52:09.500Z,99857.66
2024-03-14T17:54:36.144Z,99860.69
2024-03-14T17:57:04.054Z,99863.47
2024-03-14T17:59:30.627Z,99870.81
2024-03-14T18:01:57.642Z,99870.03
2024-03-14T18:04:24.202Z,99867.66
2024-03-14T18:06:50.765Z,99866.00
2024-03-14T18:09:19.005Z,99866.69
2024-03-14T18:11:46.490Z,99866.69
2024-03-14T18:14:14.625Z,99871.22
2024-03-14T18:16:42.483Z,99874.78
2024-03-14T18:19:10.314Z,99872.13
2024-03-14T18:21:40.207Z,99874.59
2024-03-14T18:24:08.333Z,99876.56
2024-03-14T18:26:38.329Z,99880.41
2024-03-14T18:29:07.320Z,99877.38
2024-03-14T18:31:47.866Z,99880.22
2024-03-14T18:34:33.511Z,99884.25
2024-03-14T18:37:00.482Z,99882.25
2024-03-14T18:39:33.234Z,99877.59
2024-03-14T18:42:05.959Z,99881.50
2024-03-14T18:44:34.012Z,99884.59
2024-03-14T18:47:00.696Z,99881.88
2024-03-14T18:49:27.321Z,99885.66
2024-03-14T18:51:54.999Z,99876.12
2024-03-14T18:54:22.104Z,99883.44
2024-03-14T18:56:50.996Z,99885.13
2024-03-14T18:59:18.836Z,99888.28
2024-03-14T19:01:45.433Z,99887.97
2024-03-14T19:04:13.543Z,99880.59
2024-03-14T19:06:40.094Z,99884.81
2024-03-14T19:09:07.224Z,99886.44
2024-03-14T19:11:34.084Z,99885.81
2024-03-14T19:14:01.382Z,99886.78
2024-03-14T19:16:28.026Z,99884.13
2024-03-14T19:18:56.270Z,99888.34
2024-03-14T19:21:22.955Z,99882.06
2024-03-14T19:23:49.646Z,99884.63
2024-03-14T19:26:18.171Z,99889.22
2024-03-14T19:28:44.670Z,99889.91
2024-03-14T19:31:11.907Z,99881.38
2024-03-14T19:33:38.620Z,99887.63
2024-03-14T19:36:05.383Z,99895.56
2024-03-14T19:38:33.251Z,99882.66
2024-03-14T19:40:59.750Z,99886.94
2024-03-14T19:43:26.264Z,99889.16
2024-03-14T19:45:52.898Z,99886.81
2024-03-14T19:48:20.447Z,99886.72
2024-03-14T19:50:47.805Z,99882.53
2024-03-14T19:53:15.097Z,99879.31
2024-03-14T19:55:41.651Z,99883.41
2024-03-14T19:58:08.580Z,99884.81
2024-03-14T20:00:35.218Z,99888.13
2024-03-14T20:03:03.298Z,99881.94
2024-03-14T20:05:32.957Z,99884.22
2024-03-14T20:08:00.027Z,99885.78
2024-03-14T20:10:27.631Z,99880.59
2024-03-14T20:12:55.188Z,99889.56
2024-03-14T20:15:25.751Z,99880.31
2024-03-14T20:17:52.539Z,99882.94
2024-03-14T20:20:19.324Z,99876.28
2024-03-14T20:22:45.770Z,99878.31
2024-03-14T20:25:13.507Z,99877.25
2024-03-14T20:27:40.508Z,99873.75
2024-03-14T20:30:13.686Z,99876.78
2024-03-14T20:32:43.168Z,99879.09
2024-03-14T20:35:10.145Z,99872.37
2024-03-14T20:37:37.795Z,99878.81
2024-03-14T20:40:05.594Z,99876.06
2024-03-14T20:42:35.586Z,99886.97
2024-03-14T20:45:02.299Z,99877.75
2024-03-14T20:47:31.984Z,99873.56
2024-03-14T20:49:58.618Z,99877.66
2024-03-14T20:52:26.774Z,99873.69
2024-03-14T20:55:21.312Z,99873.81
2024-03-14T20:57:56.839Z,99870.16
2024-03-14T21:00:42.488Z,99870.78
2024-03-14T21:03:10.025Z,99866.53
2024-03-14T21:05:37.550Z,99865.66
2024-03-14T21:08:11.205Z,99863.25
2024-03-14T21:10:39.061Z,99862.09
2024-03-14T21:13:06.279Z,99862.56
2024-03-14T21:15:33.055Z,99860.34
2024-03-14T21:17:59.767Z,99865.63
2024-03-14T21:20:28.307Z,99863.25
2024-03-14T21:22:57.069Z,99856.81
2024-03-14T21:25:25.669Z,99863.69
2024-03-14T21:27:52.433Z,99865.41
2024-03-14T21:30:20.307Z,99866.38
2024-03-14T21:32:46.963Z,99860.91
2024-03-14T21:35:13.822Z,99870.94
2024-03-14T21:37:41.292Z,99865.25
2024-03-14T21:40:09.268Z,99865.31
2024-03-14T21:42:37.564Z,99858.66
2024-03-14T21:45:07.704Z,99863.63
2024-03-14T21:47:37.981Z,99857.03
2024-03-14T21:50:05.218Z,99852.38
2024-03-14T21:52:34.437Z,99852.50
2024-03-14T21:55:01.775Z,99860.25
2024-03-14T21:57:28.363Z,99856.72
2024-03-14T21:59:54.908Z,99855.09
2024-03-14T22:02:21.925Z,99856.22
2024-03-14T22:04:48.453Z,99851.72
2024-03-14T22:07:14.974Z,99854.22
2024-03-14T22:09:42.127Z,99851.78
2024-03-14T22:12:08.741Z,99851.28
2024-03-14T22:14:35.275Z,99850.34
2024-03-14T22:17:02.017Z,99853.00
2024-03-14T22:19:28.635Z,99852.22
2024-03-14T22:21:55.561Z,99849.47
2024-03-14T22:24:23.342Z,99843.81
2024-03-14T22:26:49.867Z,99849.22
2024-03-14T22:29:16.793Z,99847.50
2024-03-14T22:31:43.560Z,99854.25
2024-03-14T22:34:10.151Z,99850.72
2024-03-14T22:36:40.122Z,99849.37
2024-03-14T22:39:11.085Z,99854.78
2024-03-14T22:41:40.751Z,99857.97
2024-03-14T22:44:07.319Z,99851.75
2024-03-14T22:46:34.220Z,99853.56
2024-03-14T22:49:03.630Z,99847.97
2024-03-14T22:51:30.191Z,99851.03
2024-03-14T22:53:58.177Z,99853.22
2024-03-14T22:56:24.671Z,99842.75
2024-03-14T22:58:51.407Z,99839.25
2024-03-14T23:01:17.973Z,99845.31
2024-03-14T23:03:46.068Z,99838.25
2024-03-14T23:06:14.910Z,99838.53
2024-03-14T23:08:41.419Z,99843.97
2024-03-14T23:11:07.975Z,99842.06
2024-03-14T23:13:34.581Z,99836.00
2024-03-14T23:16:01.530Z,99841.13
2024-03-14T23:18:28.255Z,99839.84
2024-03-14T23:20:59.565Z,99841.63
2024-03-14T23:23:29.308Z,99839.91
2024-03-14T23:25:57.265Z,99845.34
2024-03-14T23:28:25.952Z,99851.59
2024-03-14T23:30:52.646Z,99849.97
2024-03-14T23:33:19.337Z,99841.78
2024-03-14T23:35:47.661Z,99836.00
2024-03-14T23:38:14.338Z,99845.06
2024-03-14T23:40:41.178Z,99838.97
2024-03-14T23:43:07.791Z,99839.06
2024-03-14T23:45:35.620Z,99847.53
2024-03-14T23:48:02.987Z,99850.78
2024-03-14T23:50:30.252Z,99847.78
2024-03-14T23:52:56.968Z,99850.53
2024-03-14T23:55:23.831Z,99860.06
2024-03-14T23:57:50.625Z,99852.97
